Time;durP1;ratioP1;P1;durP2;ratioP2;P2;SDS_P1;SDS_P2;PMS_P1;PMS_P2;Temp;Humidity;BMP_temperature;BMP_pressure;BME280_temperature;BME280_humidity;BME280_pressure;Samples;Min_cycle;Max_cycle;Signal;HPM_P1;HPM_P2
2023/05/09 00:00:04;;;;;;;5.7;4.2;;;;;;;;;;;;;
2023/05/09 00:02:33;;;;;;;6.1;4.2;;;;;;;;;;;;;
2023/05/09 00:04:54;;;;;;;5.4;3.9;;;;;;;;;;;;;
2023/05/09 00:07:21;;;;;;;5.1;4.1;;;;;;;;;;;;;
2023/05/09 00:09:47;;;;;;;6.2;4;;;;;;;;;;;;;
2023/05/09 00:12:12;;;;;;;4.6;3.5;;;;;;;;;;;;;
2023/05/09 00:14:38;;;;;;;5.3;3.5;;;;;;;;;;;;;
2023/05/09 00:17:03;;;;;;;3;2.7;;;;;;;;;;;;;
2023/05/09 00:19:28;;;;;;;4.2;3.4;;;;;;;;;;;;;
2023/05/09 00:21:54;;;;;;;2.8;2.4;;;;;;;;;;;;;
2023/05/09 00:24:19;;;;;;;2.3;2.1;;;;;;;;;;;;;
2023/05/09 00:26:44;;;;;;;3;2.3;;;;;;;;;;;;;
2023/05/09 00:29:09;;;;;;;2.7;2.1;;;;;;;;;;;;;
2023/05/09 00:31:35;;;;;;;2.6;2.1;;;;;;;;;;;;;
2023/05/09 00:33:59;;;;;;;2.5;2.2;;;;;;;;;;;;;
2023/05/09 00:36:25;;;;;;;2.5;2.2;;;;;;;;;;;;;
2023/05/09 00:38:50;;;;;;;2.6;2.4;;;;;;;;;;;;;
2023/05/09 00:41:15;;;;;;;2.2;2;;;;;;;;;;;;;
2023/05/09 00:43:40;;;;;;;2.5;2.3;;;;;;;;;;;;;
2023/05/09 00:46:05;;;;;;;2.5;2.1;;;;;;;;;;;;;
2023/05/09 00:48:30;;;;;;;2.4;2;;;;;;;;;;;;;
2023/05/09 00:50:56;;;;;;;1.9;1.8;;;;;;;;;;;;;
2023/05/09 00:53:21;;;;;;;2.2;2;;;;;;;;;;;;;
2023/05/09 00:55:47;;;;;;;2;1.7;;;;;;;;;;;;;
2023/05/09 00:58:12;;;;;;;2.6;2.4;;;;;;;;;;;;;
2023/05/09 01:00:38;;;;;;;2.2;1.9;;;;;;;;;;;;;
2023/05/09 01:03:04;;;;;;;2.3;2.1;;;;;;;;;;;;;
2023/05/09 01:05:29;;;;;;;2.7;2.2;;;;;;;;;;;;;
2023/05/09 01:07:54;;;;;;;3.3;2.3;;;;;;;;;;;;;
2023/05/09 01:10:20;;;;;;;2.8;2.1;;;;;;;;;;;;;
2023/05/09 01:12:45;;;;;;;4.4;2.4;;;;;;;;;;;;;
2023/05/09 01:15:10;;;;;;;2.8;2;;;;;;;;;;;;;
2023/05/09 01:17:35;;;;;;;2.9;2.5;;;;;;;;;;;;;
2023/05/09 01:20:00;;;;;;;2.2;2;;;;;;;;;;;;;
2023/05/09 01:22:25;;;;;;;2.5;2.1;;;;;;;;;;;;;
2023/05/09 01:24:50;;;;;;;2.9;2.4;;;;;;;;;;;;;
2023/05/09 01:27:16;;;;;;;2.6;2.3;;;;;;;;;;;;;
2023/05/09 01:29:41;;;;;;;2.6;2.2;;;;;;;;;;;;;
2023/05/09 01:32:06;;;;;;;2.2;1.9;;;;;;;;;;;;;
2023/05/09 01:34:31;;;;;;;2.5;2;;;;;;;;;;;;;
2023/05/09 01:36:57;;;;;;;2.8;1.9;;;;;;;;;;;;;
2023/05/09 01:39:22;;;;;;;2.9;2.3;;;;;;;;;;;;;
2023/05/09 01:41:50;;;;;;;2.8;2.5;;;;;;;;;;;;;
2023/05/09 01:44:14;;;;;;;2.7;2.5;;;;;;;;;;;;;
2023/05/09 01:46:39;;;;;;;2.6;2.4;;;;;;;;;;;;;
2023/05/09 01:49:04;;;;;;;2.5;2.3;;;;;;;;;;;;;
2023/05/09 01:51:32;;;;;;;3.5;2;;;;;;;;;;;;;
2023/05/09 01:53:56;;;;;;;5.1;2.5;;;;;;;;;;;;;
2023/05/09 01:56:22;;;;;;;2.7;2.3;;;;;;;;;;;;;
2023/05/09 01:58:48;;;;;;;2.8;2.2;;;;;;;;;;;;;
2023/05/09 02:01:13;;;;;;;2.6;1.9;;;;;;;;;;;;;
2023/05/09 02:03:38;;;;;;;2.8;1.6;;;;;;;;;;;;;
2023/05/09 02:06:04;;;;;;;1.6;1.5;;;;;;;;;;;;;
2023/05/09 02:08:29;;;;;;;2;1.8;;;;;;;;;;;;;
2023/05/09 02:10:55;;;;;;;56.8;26.6;;;;;;;;;;;;;
2023/05/09 02:13:20;;;;;;;48.6;23.8;;;;;;;;;;;;;
2023/05/09 02:15:47;;;;;;;10.5;5.6;;;;;;;;;;;;;
2023/05/09 02:18:12;;;;;;;1.7;1.6;;;;;;;;;;;;;
2023/05/09 02:20:39;;;;;;;2;1.8;;;;;;;;;;;;;
2023/05/09 02:26:00;;;;;;;2.1;1.8;;;;;;;;;;;;;
2023/05/09 02:28:26;;;;;;;2;1.8;;;;;;;;;;;;;
2023/05/09 02:30:51;;;;;;;2.3;1.9;;;;;;;;;;;;;
2023/05/09 02:33:16;;;;;;;2.3;1.8;;;;;;;;;;;;;
2023/05/09 02:35:41;;;;;;;2.3;1.7;;;;;;;;;;;;;
2023/05/09 02:38:09;;;;;;;1.8;1.7;;;;;;;;;;;;;
2023/05/09 02:40:34;;;;;;;1.9;1.8;;;;;;;;;;;;;
2023/05/09 02:42:59;;;;;;;1.9;1.7;;;;;;;;;;;;;
2023/05/09 02:45:25;;;;;;;2;1.8;;;;;;;;;;;;;
2023/05/09 02:47:50;;;;;;;2.4;2.2;;;;;;;;;;;;;
2023/05/09 02:50:17;;;;;;;2.6;2.4;;;;;;;;;;;;;
2023/05/09 02:52:43;;;;;;;3;2.6;;;;;;;;;;;;;
2023/05/09 02:55:08;;;;;;;2.8;2.5;;;;;;;;;;;;;
2023/05/09 02:57:33;;;;;;;3.2;2.6;;;;;;;;;;;;;
2023/05/09 02:59:59;;;;;;;3.7;2.6;;;;;;;;;;;;;
2023/05/09 03:02:25;;;;;;;2.9;2.6;;;;;;;;;;;;;
2023/05/09 03:04:50;;;;;;;4.1;3.5;;;;;;;;;;;;;
2023/05/09 03:07:17;;;;;;;3.6;3;;;;;;;;;;;;;
2023/05/09 03:09:42;;;;;;;3.5;2.5;;;;;;;;;;;;;
2023/05/09 03:12:07;;;;;;;3;2.7;;;;;;;;;;;;;
2023/05/09 03:14:32;;;;;;;3.3;2.6;;;;;;;;;;;;;
2023/05/09 03:17:00;;;;;;;2.6;2.3;;;;;;;;;;;;;
2023/05/09 03:19:25;;;;;;;2.3;2.1;;;;;;;;;;;;;
2023/05/09 03:21:51;;;;;;;1.7;1.6;;;;;;;;;;;;;
2023/05/09 03:24:16;;;;;;;2;1.8;;;;;;;;;;;;;
2023/05/09 03:26:43;;;;;;;1.8;1.7;;;;;;;;;;;;;
2023/05/09 03:29:08;;;;;;;1.9;1.8;;;;;;;;;;;;;
2023/05/09 03:31:36;;;;;;;1.8;1.7;;;;;;;;;;;;;
2023/05/09 03:34:01;;;;;;;2.2;1.9;;;;;;;;;;;;;
2023/05/09 03:36:28;;;;;;;2.2;1.6;;;;;;;;;;;;;
2023/05/09 03:38:53;;;;;;;2.2;1.8;;;;;;;;;;;;;
2023/05/09 03:41:19;;;;;;;1.8;1.7;;;;;;;;;;;;;
2023/05/09 03:43:45;;;;;;;1.9;1.7;;;;;;;;;;;;;
2023/05/09 03:46:11;;;;;;;2;1.7;;;;;;;;;;;;;
2023/05/09 03:48:36;;;;;;;2.3;2.1;;;;;;;;;;;;;
2023/05/09 03:51:02;;;;;;;3.7;2.4;;;;;;;;;;;;;
2023/05/09 03:53:27;;;;;;;2.2;2;;;;;;;;;;;;;
2023/05/09 03:55:52;;;;;;;2.9;2.3;;;;;;;;;;;;;
2023/05/09 03:58:18;;;;;;;4.4;2.4;;;;;;;;;;;;;
2023/05/09 04:02:37;;;;;;;5.7;3.7;;;;;;;12.78;100;939.4266;;;;
2023/05/09 04:05:03;;;;;;;4.9;3.1;;;;;;;12.91;100;939.4328;;;;
2023/05/09 04:07:29;;;;;;;3.4;2.7;;;;;;;13.03;100;939.4158;;;;
2023/05/09 04:09:54;;;;;;;3.1;2.5;;;;;;;13.06;100;939.3823;;;;
2023/05/09 04:12:24;;;;;;;2.2;2;;;;;;;13.05;100;939.355;;;;
2023/05/09 04:14:50;;;;;;;2.2;1.8;;;;;;;12.98;100;939.3234;;;;
2023/05/09 04:17:16;;;;;;;2.1;1.8;;;;;;;12.95;100;939.3337;;;;
2023/05/09 04:19:47;;;;;;;1.8;1.7;;;;;;;12.99;100;939.3658;;;;
2023/05/09 04:22:12;;;;;;;2.2;2;;;;;;;12.94;100;939.4073;;;;
2023/05/09 04:24:41;;;;;;;1.9;1.7;;;;;;;12.76;100;939.4338;;;;
2023/05/09 04:27:11;;;;;;;1.7;1.6;;;;;;;12.8;100;939.4938;;;;
2023/05/09 04:29:43;;;;;;;2.1;1.8;;;;;;;12.94;100;939.4936;;;;
2023/05/09 04:32:14;;;;;;;2.1;1.8;;;;;;;13;100;939.4666;;;;
2023/05/09 04:34:44;;;;;;;1.9;1.7;;;;;;;12.84;100;939.4023;;;;
2023/05/09 04:37:09;;;;;;;1.7;1.6;;;;;;;12.89;100;939.3896;;;;
2023/05/09 04:39:34;;;;;;;2;1.5;;;;;;;12.96;100;939.3674;;;;
2023/05/09 04:42:03;;;;;;;1.5;1.4;;;;;;;13.02;100;939.3206;;;;
2023/05/09 04:44:27;;;;;;;1.8;1.7;;;;;;;13.09;100;939.3159;;;;
2023/05/09 04:46:56;;;;;;;2.4;1.7;;;;;;;13.18;100;939.2644;;;;
2023/05/09 04:49:20;;;;;;;1.4;1.3;;;;;;;13.09;98.11914;939.2648;;;;
2023/05/09 04:51:49;;;;;;;4.9;4.1;;;;;;;13.15;100;939.2769;;;;
2023/05/09 04:57:54;;;;;;;1.7;1.6;;;;;;;13.35;99.19629;939.2456;;;;
2023/05/09 05:00:20;;;;;;;1.6;1.4;;;;;;;13.38;99.6875;939.1752;;;;
2023/05/09 05:02:49;;;;;;;1.4;1.3;;;;;;;13.45;99.38184;939.197;;;;
2023/05/09 05:05:14;;;;;;;2;1.5;;;;;;;13.38;99.72168;939.22;;;;
2023/05/09 05:07:43;;;;;;;1.4;1.3;;;;;;;13.44;100;939.2539;;;;
2023/05/09 05:10:15;;;;;;;1.3;1.2;;;;;;;13.43;100;939.2395;;;;
2023/05/09 05:12:44;;;;;;;1.2;1.1;;;;;;;13.47;99.85938;939.1875;;;;
2023/05/09 05:15:09;;;;;;;1.5;1.4;;;;;;;13.42;100;939.1947;;;;
2023/05/09 05:17:40;;;;;;;1.4;1.3;;;;;;;13.43;100;939.097;;;;
2023/05/09 05:20:12;;;;;;;1.1;1;;;;;;;13.45;99.80762;939.1611;;;;
2023/05/09 05:22:41;;;;;;;1.4;1.2;;;;;;;13.45;100;939.0579;;;;
2023/05/09 05:25:13;;;;;;;1.4;1.3;;;;;;;13.42;100;939.1163;;;;
2023/05/09 05:27:44;;;;;;;1.4;1.3;;;;;;;13.46;100;939.1315;;;;
2023/05/09 05:30:16;;;;;;;1.5;1.4;;;;;;;13.37;100;939.1616;;;;
2023/05/09 05:32:42;;;;;;;1.5;1.4;;;;;;;13.34;100;939.1656;;;;
2023/05/09 05:35:06;;;;;;;2.6;1.4;;;;;;;13.32;100;939.2192;;;;
2023/05/09 05:37:37;;;;;;;1.5;1.4;;;;;;;13.33;100;939.1728;;;;
2023/05/09 05:40:09;;;;;;;1.7;1.6;;;;;;;13.4;100;939.1464;;;;
2023/05/09 05:42:40;;;;;;;1.7;1.6;;;;;;;13.59;100;939.1394;;;;
2023/05/09 05:45:16;;;;;;;2.1;1.7;;;;;;;13.57;100;939.1058;;;;
2023/05/09 05:47:49;;;;;;;1.8;1.7;;;;;;;13.93;100;939.0659;;;;
2023/05/09 05:50:14;;;;;;;1.4;1.3;;;;;;;14.01;99.15332;939.1313;;;;
2023/05/09 05:52:48;;;;;;;1.4;1.3;;;;;;;14.02;97.29102;939.1356;;;;
2023/05/09 05:55:18;;;;;;;1.5;1.4;;;;;;;14.13;97.75195;939.1144;;;;
2023/05/09 05:57:43;;;;;;;2.1;1.6;;;;;;;14.26;96.84766;939.0783;;;;
2023/05/09 06:00:18;;;;;;;1.4;1.3;;;;;;;14.05;96.24902;939.0867;;;;
2023/05/09 06:02:48;;;;;;;1.4;1.3;;;;;;;13.89;97.30859;939.0516;;;;
2023/05/09 06:05:19;;;;;;;1.4;1.3;;;;;;;14.17;97.55566;939.1216;;;;
2023/05/09 06:07:44;;;;;;;1.3;1.2;;;;;;;14.29;96.30273;939.0542;;;;
2023/05/09 06:10:16;;;;;;;1.2;1.1;;;;;;;14.2;95.83398;939.1295;;;;
2023/05/09 06:12:43;;;;;;;1.4;1.3;;;;;;;14.1;97.6543;939.0897;;;;
2023/05/09 06:15:08;;;;;;;1.6;1.4;;;;;;;14.14;97.65234;939.132;;;;
2023/05/09 06:17:39;;;;;;;1.7;1.4;;;;;;;14.25;97.73242;939.1656;;;;
2023/05/09 06:20:04;;;;;;;3.5;2.2;;;;;;;14.31;97.20508;939.1014;;;;
2023/05/09 06:22:31;;;;;;;1.2;1.1;;;;;;;15.17;93.63477;939.0678;;;;
2023/05/09 06:24:56;;;;;;;0.8;0.8;;;;;;;14.87;89.86914;939.0197;;;;
2023/05/09 06:27:24;;;;;;;1.1;1.1;;;;;;;15.35;88.94141;938.9528;;;;
2023/05/09 06:29:51;;;;;;;1.4;1.2;;;;;;;15.91;90.49902;938.9403;;;;
2023/05/09 06:32:20;;;;;;;1;0.9;;;;;;;17.89;77.47461;938.8608;;;;
2023/05/09 06:34:44;;;;;;;0.9;0.9;;;;;;;17.44;78.22852;938.8692;;;;
2023/05/09 06:37:11;;;;;;;0.7;0.7;;;;;;;19.14;72.6748;938.8119;;;;
2023/05/09 06:39:36;;;;;;;1.1;1;;;;;;;19.9;70.2334;938.7869;;;;
2023/05/09 06:42:03;;;;;;;1.7;0.8;;;;;;;20.18;66.8584;938.712;;;;
2023/05/09 06:44:29;;;;;;;0.8;0.8;;;;;;;19.87;66.60156;938.7173;;;;
2023/05/09 06:46:54;;;;;;;0.9;0.9;;;;;;;20.02;66.63672;938.6522;;;;
2023/05/09 06:49:22;;;;;;;0.6;0.6;;;;;;;20.41;66.01758;938.6545;;;;
2023/05/09 06:51:53;;;;;;;0.6;0.6;;;;;;;21.73;62.30078;938.6395;;;;
2023/05/09 06:54:22;;;;;;;0.6;0.6;;;;;;;21.9;59.20996;938.5999;;;;
2023/05/09 06:56:48;;;;;;;0.7;0.7;;;;;;;22.15;58.15137;938.5336;;;;
2023/05/09 06:59:15;;;;;;;0.9;0.7;;;;;;;20.96;60.71973;938.5577;;;;
2023/05/09 07:01:43;;;;;;;0.7;0.7;;;;;;;19.84;65.51172;938.5655;;;;
2023/05/09 07:04:09;;;;;;;0.7;0.7;;;;;;;20.11;65.08594;938.5377;;;;
2023/05/09 07:06:39;;;;;;;1;0.9;;;;;;;19.94;64.03418;938.4367;;;;
2023/05/09 07:09:04;;;;;;;0.6;0.6;;;;;;;18.86;67.28711;938.428;;;;
2023/05/09 07:11:31;;;;;;;0.7;0.7;;;;;;;18.45;69.2002;938.4562;;;;
2023/05/09 07:13:56;;;;;;;0.6;0.6;;;;;;;19.59;66.75879;938.3448;;;;
2023/05/09 07:16:22;;;;;;;0.5;0.5;;;;;;;20.89;61.30859;938.2828;;;;
2023/05/09 07:18:47;;;;;;;0.7;0.6;;;;;;;19.68;67.27246;938.4012;;;;
2023/05/09 07:21:14;;;;;;;0.5;0.5;;;;;;;22.74;59.36719;938.355;;;;
2023/05/09 07:23:39;;;;;;;0.5;0.5;;;;;;;22.67;56.23633;938.3323;;;;
2023/05/09 07:26:05;;;;;;;1;0.6;;;;;;;23.36;55.99512;938.2996;;;;
2023/05/09 07:28:30;;;;;;;0.6;0.6;;;;;;;24.42;50.37598;938.2476;;;;
2023/05/09 07:30:57;;;;;;;0.8;0.8;;;;;;;23.49;54.02344;938.2371;;;;
2023/05/09 07:33:22;;;;;;;0.6;0.6;;;;;;;25.87;50.88379;938.1422;;;;
2023/05/09 07:35:51;;;;;;;0.8;0.7;;;;;;;26.04;51.63672;938.1339;;;;
2023/05/09 07:38:21;;;;;;;0.8;0.7;;;;;;;26.28;45.98438;938.103;;;;
2023/05/09 07:40:46;;;;;;;0.6;0.6;;;;;;;28.28;45.22754;938.0356;;;;
2023/05/09 07:43:15;;;;;;;0.5;0.5;;;;;;;28.18;43.23145;937.9192;;;;
2023/05/09 07:45:40;;;;;;;0.8;0.6;;;;;;;27.16;43.67871;937.9102;;;;
2023/05/09 07:48:08;;;;;;;0.5;0.5;;;;;;;27.01;43.16699;937.8549;;;;
2023/05/09 07:50:32;;;;;;;0.6;0.6;;;;;;;27.38;43.07129;937.839;;;;
2023/05/09 07:52:59;;;;;;;0.5;0.5;;;;;;;27.52;42.01758;937.8116;;;;
2023/05/09 07:55:24;;;;;;;0.5;0.5;;;;;;;27.08;43.56445;937.7083;;;;
2023/05/09 07:57:54;;;;;;;0.4;0.4;;;;;;;28.03;41.37598;937.5955;;;;
2023/05/09 08:00:26;;;;;;;1.2;0.8;;;;;;;28.78;42.02832;937.5502;;;;
2023/05/09 08:02:57;;;;;;;0.5;0.5;;;;;;;29.21;39.90137;937.5236;;;;
2023/05/09 08:05:25;;;;;;;0.4;0.4;;;;;;;30.49;38.3418;937.5388;;;;
2023/05/09 08:07:51;;;;;;;0.8;0.5;;;;;;;31.02;35.93555;937.53;;;;
2023/05/09 08:10:20;;;;;;;0.5;0.5;;;;;;;31.24;35.11523;937.5005;;;;
2023/05/09 08:12:44;;;;;;;0.4;0.4;;;;;;;29.86;37.56152;937.4802;;;;
2023/05/09 08:15:14;;;;;;;0.5;0.5;;;;;;;27.94;40.41797;937.3518;;;;
2023/05/09 08:17:46;;;;;;;0.3;0.3;;;;;;;27.23;40.78125;937.2896;;;;
2023/05/09 08:20:17;;;;;;;0.3;0.3;;;;;;;28.19;40.70117;937.2651;;;;
2023/05/09 08:22:49;;;;;;;0.4;0.4;;;;;;;28.84;39.29688;937.2958;;;;
2023/05/09 08:25:20;;;;;;;0.9;0.3;;;;;;;28.84;38.28516;937.2479;;;;
2023/05/09 08:27:48;;;;;;;0.4;0.4;;;;;;;30.72;36.63965;937.2209;;;;
2023/05/09 08:30:14;;;;;;;0.3;0.3;;;;;;;27.97;39.25586;937.111;;;;
2023/05/09 08:32:39;;;;;;;1;0.5;;;;;;;29.94;36.7793;937.1267;;;;
2023/05/09 08:35:09;;;;;;;0.8;0.5;;;;;;;30.48;34.75781;937.1194;;;;
2023/05/09 08:37:43;;;;;;;0.4;0.4;;;;;;;31.28;35.28613;937.114;;;;
2023/05/09 08:40:15;;;;;;;0.2;0.2;;;;;;;30.82;33.00293;937.086;;;;
2023/05/09 08:42:40;;;;;;;0.3;0.3;;;;;;;29.33;38.9707;937.0658;;;;
2023/05/09 08:45:08;;;;;;;0.3;0.3;;;;;;;28.37;43.44043;936.9813;;;;
2023/05/09 08:47:33;;;;;;;0.4;0.4;;;;;;;27.84;40.46875;936.9886;;;;
2023/05/09 08:49:59;;;;;;;0.3;0.3;;;;;;;28.44;40.74805;937.0417;;;;
2023/05/09 08:52:24;;;;;;;0.6;0.3;;;;;;;28.38;40.00488;936.9095;;;;
2023/05/09 08:54:52;;;;;;;0.4;0.4;;;;;;;26.23;44.6416;936.9609;;;;
2023/05/09 08:57:17;;;;;;;0.3;0.3;;;;;;;26.31;46.05859;936.8995;;;;
2023/05/09 08:59:44;;;;;;;0.5;0.5;;;;;;;27.28;43.44141;936.834;;;;
2023/05/09 09:02:11;;;;;;;0.2;0.2;;;;;;;25.98;41.89648;936.8318;;;;
2023/05/09 09:04:37;;;;;;;0.3;0.3;;;;;;;25.26;45.06445;936.7802;;;;
2023/05/09 09:07:02;;;;;;;0.2;0.2;;;;;;;26.93;41.48828;936.7622;;;;
2023/05/09 09:09:28;;;;;;;0.2;0.2;;;;;;;27.2;42.56836;936.6638;;;;
2023/05/09 09:11:54;;;;;;;0.2;0.2;;;;;;;28.21;38.73047;936.6733;;;;
2023/05/09 09:14:19;;;;;;;0.2;0.2;;;;;;;28.52;37.86426;936.6535;;;;
2023/05/09 09:16:45;;;;;;;0.2;0.2;;;;;;;26.24;42.02832;936.7629;;;;
2023/05/09 09:19:10;;;;;;;0.2;0.2;;;;;;;24.46;46.66895;936.6667;;;;
2023/05/09 09:21:37;;;;;;;0.3;0.3;;;;;;;24.44;47.06836;936.623;;;;
2023/05/09 09:24:02;;;;;;;0.3;0.3;;;;;;;24.63;48.51465;936.6094;;;;
2023/05/09 09:26:30;;;;;;;2.3;0.7;;;;;;;23.22;55.61328;936.6385;;;;
2023/05/09 09:28:55;;;;;;;0.9;0.7;;;;;;;22.16;57.81445;936.5661;;;;
2023/05/09 09:31:18;;;;;;;0.8;0.8;;;;;;;22.11;57.29102;936.5066;;;;
2023/05/09 09:33:44;;;;;;;1.5;0.7;;;;;;;21.86;62.07422;936.4384;;;;
2023/05/09 09:36:09;;;;;;;0.6;0.6;;;;;;;21.62;60.98633;936.4011;;;;
2023/05/09 09:38:34;;;;;;;0.7;0.7;;;;;;;21.83;59.91602;936.3574;;;;
2023/05/09 09:40:59;;;;;;;1.1;0.8;;;;;;;21.76;58.875;936.3321;;;;
2023/05/09 09:43:24;;;;;;;0.5;0.5;;;;;;;21.72;57.75488;936.3038;;;;
2023/05/09 09:45:51;;;;;;;0.7;0.7;;;;;;;20.69;60.8125;936.2503;;;;
2023/05/09 09:48:16;;;;;;;0.7;0.5;;;;;;;20.89;61.56348;936.189;;;;
2023/05/09 09:50:41;;;;;;;0.5;0.5;;;;;;;20.83;61.8252;936.1122;;;;
2023/05/09 09:53:06;;;;;;;0.7;0.7;;;;;;;20.98;60.37305;936.1234;;;;
2023/05/09 09:55:31;;;;;;;0.6;0.6;;;;;;;20.99;62.4541;936.1006;;;;
2023/05/09 09:57:57;;;;;;;0.5;0.5;;;;;;;21.43;61.62891;936.0928;;;;
2023/05/09 10:00:26;;;;;;;1;0.5;;;;;;;21.74;58.40332;936.0211;;;;
2023/05/09 10:02:54;;;;;;;0.5;0.5;;;;;;;21.62;58.64551;936.0031;;;;
2023/05/09 10:05:19;;;;;;;0.6;0.6;;;;;;;21.53;60.15527;935.9498;;;;
2023/05/09 10:07:47;;;;;;;1.5;0.8;;;;;;;21.52;60.03613;935.9008;;;;
2023/05/09 10:10:12;;;;;;;0.7;0.7;;;;;;;22.19;60.29004;935.7932;;;;
2023/05/09 10:12:40;;;;;;;0.5;0.5;;;;;;;23.15;56.23926;935.7639;;;;
2023/05/09 10:15:05;;;;;;;0.5;0.5;;;;;;;24.03;52.80469;935.7173;;;;
2023/05/09 10:17:30;;;;;;;0.6;0.6;;;;;;;24.36;53.16406;935.7154;;;;
2023/05/09 10:19:55;;;;;;;0.7;0.7;;;;;;;25.07;50.55664;935.7332;;;;
2023/05/09 10:22:21;;;;;;;0.9;0.7;;;;;;;24.92;51.01172;935.7191;;;;
2023/05/09 10:24:46;;;;;;;0.8;0.6;;;;;;;25.2;49.73438;935.5732;;;;
2023/05/09 10:27:11;;;;;;;0.6;0.6;;;;;;;25.5;46.74316;935.6088;;;;
2023/05/09 10:29:36;;;;;;;0.9;0.5;;;;;;;26.05;45.20313;935.5236;;;;
2023/05/09 10:32:05;;;;;;;0.8;0.6;;;;;;;26.31;46.38965;935.4889;;;;
2023/05/09 10:34:26;;;;;;;0.7;0.7;;;;;;;26.46;45.55273;935.4222;;;;
2023/05/09 10:36:56;;;;;;;0.4;0.4;;;;;;;26.58;45.13867;935.4319;;;;
2023/05/09 10:39:20;;;;;;;0.6;0.6;;;;;;;26.34;46.54688;935.3452;;;;
2023/05/09 10:41:50;;;;;;;0.6;0.6;;;;;;;26.2;47.95215;935.3722;;;;
2023/05/09 10:44:14;;;;;;;0.9;0.7;;;;;;;26.85;44.84473;935.3002;;;;
2023/05/09 10:46:40;;;;;;;0.6;0.4;;;;;;;27.27;44.19922;935.3036;;;;
2023/05/09 10:49:05;;;;;;;1.1;0.5;;;;;;;27.61;43.09375;935.2458;;;;
2023/05/09 10:51:34;;;;;;;0.5;0.5;;;;;;;27.95;41.26172;935.1845;;;;
2023/05/09 10:54:00;;;;;;;0.5;0.5;;;;;;;27.81;42.83984;935.0688;;;;
2023/05/09 10:56:25;;;;;;;0.5;0.5;;;;;;;27.2;46.75391;935.0338;;;;
2023/05/09 10:58:52;;;;;;;1;0.5;;;;;;;26.47;47.7793;934.993;;;;
2023/05/09 11:01:17;;;;;;;0.8;0.8;;;;;;;26.27;45.77051;934.9694;;;;
2023/05/09 11:03:42;;;;;;;0.4;0.4;;;;;;;26.56;46.45117;934.9158;;;;
2023/05/09 11:06:07;;;;;;;0.5;0.5;;;;;;;26.08;49.13281;934.8403;;;;
2023/05/09 11:08:34;;;;;;;0.6;0.6;;;;;;;26.4;49.86719;934.8466;;;;
2023/05/09 11:10:59;;;;;;;0.6;0.6;;;;;;;26.16;47.07227;934.7687;;;;
2023/05/09 11:13:24;;;;;;;0.6;0.6;;;;;;;25.23;49.44238;934.7586;;;;
2023/05/09 11:15:51;;;;;;;1.1;0.8;;;;;;;24.7;54.47754;934.7271;;;;
2023/05/09 11:18:17;;;;;;;0.6;0.6;;;;;;;24.22;49.68359;934.5781;;;;
2023/05/09 11:20:44;;;;;;;0.6;0.6;;;;;;;23.51;54.0498;934.649;;;;
2023/05/09 11:23:10;;;;;;;0.6;0.5;;;;;;;23.53;52.12402;934.67;;;;
2023/05/09 11:25:35;;;;;;;0.5;0.5;;;;;;;23.22;52.5459;934.6487;;;;
2023/05/09 11:28:00;;;;;;;0.8;0.6;;;;;;;22.99;53.90332;934.5508;;;;
2023/05/09 11:30:27;;;;;;;0.6;0.6;;;;;;;22.87;54.81836;934.4828;;;;
2023/05/09 11:32:57;;;;;;;0.7;0.7;;;;;;;23.86;51.92676;934.475;;;;
2023/05/09 11:35:20;;;;;;;0.5;0.5;;;;;;;24.64;51.45117;934.4656;;;;
2023/05/09 11:37:47;;;;;;;0.5;0.5;;;;;;;25.18;49.71973;934.4039;;;;
2023/05/09 11:40:12;;;;;;;0.6;0.6;;;;;;;25.19;48.45703;934.3675;;;;
2023/05/09 11:42:40;;;;;;;0.6;0.6;;;;;;;24.5;51.31641;934.3391;;;;
2023/05/09 11:45:12;;;;;;;0.9;0.6;;;;;;;24.25;49.87598;934.2554;;;;
2023/05/09 11:47:41;;;;;;;0.5;0.5;;;;;;;23.14;54.65137;934.1562;;;;
2023/05/09 11:50:06;;;;;;;0.5;0.5;;;;;;;23.13;52.24219;934.1305;;;;
2023/05/09 11:52:33;;;;;;;0.7;0.6;;;;;;;22.53;55.46777;934.0792;;;;
2023/05/09 11:54:58;;;;;;;0.7;0.7;;;;;;;22.81;54.79883;933.9679;;;;
2023/05/09 11:57:23;;;;;;;0.7;0.7;;;;;;;22.55;54.03906;934.0739;;;;
2023/05/09 11:59:49;;;;;;;0.7;0.7;;;;;;;22.61;55.39551;934.0399;;;;
2023/05/09 12:02:14;;;;;;;0.7;0.7;;;;;;;22.71;55.33691;933.9497;;;;
2023/05/09 12:04:42;;;;;;;0.9;0.8;;;;;;;22.75;54.5332;933.9722;;;;
2023/05/09 12:07:07;;;;;;;0.6;0.6;;;;;;;22.73;53.61426;933.9156;;;;
2023/05/09 12:09:33;;;;;;;0.7;0.7;;;;;;;23.14;54.3457;933.837;;;;
2023/05/09 12:11:59;;;;;;;1.2;0.7;;;;;;;23.28;53.25781;933.8923;;;;
2023/05/09 12:14:24;;;;;;;0.6;0.6;;;;;;;23.33;54.3916;933.8811;;;;
2023/05/09 12:16:49;;;;;;;0.6;0.6;;;;;;;23.32;52.31055;933.8205;;;;
2023/05/09 12:19:16;;;;;;;0.7;0.7;;;;;;;22.74;55.0127;933.7517;;;;
2023/05/09 12:21:41;;;;;;;0.6;0.6;;;;;;;22.6;56.19336;933.7356;;;;
2023/05/09 12:24:06;;;;;;;1.6;0.8;;;;;;;21.94;58.52344;933.6926;;;;
2023/05/09 12:26:31;;;;;;;1.4;0.6;;;;;;;22.23;57.49414;933.6505;;;;
2023/05/09 12:28:57;;;;;;;0.5;0.5;;;;;;;22.52;57.28516;933.6242;;;;
2023/05/09 12:31:22;;;;;;;0.9;0.9;;;;;;;22.96;59.29297;933.5588;;;;
2023/05/09 12:33:51;;;;;;;0.6;0.6;;;;;;;23.37;55.50293;933.6412;;;;
2023/05/09 12:36:20;;;;;;;0.6;0.5;;;;;;;23.98;56.17871;933.5892;;;;
2023/05/09 12:38:46;;;;;;;0.7;0.7;;;;;;;24.35;52.71484;933.5598;;;;
2023/05/09 12:41:14;;;;;;;0.6;0.6;;;;;;;24.58;50.5127;933.497;;;;
2023/05/09 12:43:39;;;;;;;0.9;0.8;;;;;;;24.67;48.89648;933.4437;;;;
2023/05/09 12:46:04;;;;;;;0.7;0.7;;;;;;;24.42;50.04688;933.4115;;;;
2023/05/09 12:48:30;;;;;;;0.6;0.6;;;;;;;24.28;51.38672;933.3906;;;;
2023/05/09 12:50:56;;;;;;;0.7;0.7;;;;;;;24.15;50.51172;933.3703;;;;
2023/05/09 12:53:23;;;;;;;0.8;0.8;;;;;;;23.76;51.26758;933.4492;;;;
2023/05/09 12:55:48;;;;;;;0.6;0.6;;;;;;;23.73;51.91211;933.4189;;;;
2023/05/09 12:58:15;;;;;;;0.6;0.6;;;;;;;23.8;50.80176;933.3206;;;;
2023/05/09 13:00:40;;;;;;;0.6;0.6;;;;;;;23.16;53.20898;933.277;;;;
2023/05/09 13:03:08;;;;;;;0.7;0.7;;;;;;;23.05;54.07617;933.1995;;;;
2023/05/09 13:05:33;;;;;;;1.4;0.7;;;;;;;23.04;54.21582;933.2201;;;;
2023/05/09 13:07:59;;;;;;;1;0.8;;;;;;;23.06;54.08887;933.1804;;;;
2023/05/09 13:10:25;;;;;;;0.8;0.8;;;;;;;22.6;56.22754;933.1223;;;;
2023/05/09 13:12:51;;;;;;;0.7;0.7;;;;;;;22.14;56.94434;933.0519;;;;
2023/05/09 13:15:18;;;;;;;0.7;0.7;;;;;;;22.14;56.1582;933.0203;;;;
2023/05/09 13:17:41;;;;;;;0.8;0.8;;;;;;;22.38;56.84473;933.0175;;;;
2023/05/09 13:20:09;;;;;;;0.7;0.7;;;;;;;22.85;55.2373;932.9673;;;;
2023/05/09 13:22:33;;;;;;;1.6;0.7;;;;;;;23.41;53.94336;932.9752;;;;
2023/05/09 13:24:59;;;;;;;0.9;0.7;;;;;;;23.9;51.50781;932.8985;;;;
2023/05/09 13:27:24;;;;;;;0.6;0.6;;;;;;;24.05;50.65332;932.8945;;;;
2023/05/09 13:29:49;;;;;;;0.8;0.7;;;;;;;24.03;52.26465;932.9067;;;;
2023/05/09 13:32:14;;;;;;;0.5;0.5;;;;;;;24.21;52.29785;932.8292;;;;
2023/05/09 13:34:39;;;;;;;0.7;0.7;;;;;;;24.17;51.7627;932.8622;;;;
2023/05/09 13:37:06;;;;;;;0.6;0.6;;;;;;;24.28;51.10352;932.8381;;;;
2023/05/09 13:39:31;;;;;;;0.7;0.7;;;;;;;24.45;51.41797;932.7672;;;;
2023/05/09 13:41:56;;;;;;;0.7;0.7;;;;;;;24.49;50.72754;932.8008;;;;
2023/05/09 13:44:23;;;;;;;0.8;0.8;;;;;;;24.3;50.42285;932.8201;;;;
2023/05/09 13:46:48;;;;;;;1.5;0.8;;;;;;;24.36;51.16113;932.7756;;;;
2023/05/09 13:49:13;;;;;;;0.8;0.8;;;;;;;24.04;51.31055;932.7805;;;;
2023/05/09 13:51:38;;;;;;;1.2;0.9;;;;;;;23.78;52.76465;932.7473;;;;
2023/05/09 13:54:07;;;;;;;0.7;0.7;;;;;;;23.45;52.19727;932.6891;;;;
2023/05/09 13:56:29;;;;;;;0.7;0.7;;;;;;;23.05;52.50195;932.6569;;;;
2023/05/09 13:58:56;;;;;;;0.8;0.8;;;;;;;22.86;53.06641;932.673;;;;
2023/05/09 14:01:22;;;;;;;1.6;0.9;;;;;;;22.72;54.36426;932.6692;;;;
2023/05/09 14:03:48;;;;;;;1;0.9;;;;;;;22.42;55.48926;932.6262;;;;
2023/05/09 14:06:13;;;;;;;1.1;0.8;;;;;;;22.15;56.94434;932.613;;;;
2023/05/09 14:08:39;;;;;;;0.8;0.8;;;;;;;22.18;57.16992;932.6013;;;;
2023/05/09 14:11:04;;;;;;;0.8;0.8;;;;;;;22.31;56.40234;932.633;;;;
2023/05/09 14:13:30;;;;;;;1;0.9;;;;;;;22.32;58.06934;932.5999;;;;
2023/05/09 14:15:55;;;;;;;1.5;0.8;;;;;;;22.23;59.90918;932.5798;;;;
2023/05/09 14:18:20;;;;;;;0.8;0.8;;;;;;;22.01;59.46973;932.5228;;;;
2023/05/09 14:20:45;;;;;;;1;0.9;;;;;;;21.96;60.01465;932.5134;;;;
2023/05/09 14:23:12;;;;;;;0.7;0.7;;;;;;;22.08;59.47852;932.5633;;;;
2023/05/09 14:25:37;;;;;;;0.7;0.7;;;;;;;22.1;58.74414;932.4747;;;;
2023/05/09 14:28:05;;;;;;;0.8;0.7;;;;;;;22.16;57.79102;932.4498;;;;
2023/05/09 14:30:29;;;;;;;0.6;0.6;;;;;;;21.84;59.29492;932.3833;;;;
2023/05/09 14:32:58;;;;;;;1.1;0.9;;;;;;;21.83;58.86035;932.3232;;;;
2023/05/09 14:35:26;;;;;;;0.8;0.8;;;;;;;22;58.71777;932.2809;;;;
2023/05/09 14:37:51;;;;;;;1.2;0.8;;;;;;;21.75;60.10156;932.2486;;;;
2023/05/09 14:40:21;;;;;;;1.4;1;;;;;;;21.79;59.88672;932.2914;;;;
2023/05/09 14:42:49;;;;;;;0.9;0.7;;;;;;;21.82;59.52637;932.2609;;;;
2023/05/09 14:45:14;;;;;;;2.2;0.9;;;;;;;21.82;60.13574;932.2988;;;;
2023/05/09 14:47:40;;;;;;;1.5;0.9;;;;;;;21.68;60.09277;932.2645;;;;
2023/05/09 14:50:06;;;;;;;1.5;1;;;;;;;21.38;61.78613;932.2319;;;;
2023/05/09 14:52:30;;;;;;;1.3;1.1;;;;;;;21.45;61.44336;932.1142;;;;
2023/05/09 14:54:56;;;;;;;0.9;0.9;;;;;;;21.33;62.87695;932.0691;;;;
2023/05/09 14:57:21;;;;;;;0.8;0.8;;;;;;;21.36;62.05176;932.0698;;;;
2023/05/09 14:59:47;;;;;;;1.1;1;;;;;;;21.23;62.68848;932.0385;;;;
2023/05/09 15:02:13;;;;;;;0.9;0.9;;;;;;;21.1;65.86426;931.9441;;;;
2023/05/09 15:04:40;;;;;;;0.7;0.7;;;;;;;21.14;62.56934;931.9515;;;;
2023/05/09 15:07:08;;;;;;;0.7;0.7;;;;;;;20.81;61.81055;931.9207;;;;
2023/05/09 15:09:38;;;;;;;0.7;0.7;;;;;;;20.7;61.1416;931.9629;;;;
2023/05/09 15:12:03;;;;;;;0.7;0.7;;;;;;;20.52;61.2334;931.9344;;;;
2023/05/09 15:14:30;;;;;;;0.7;0.7;;;;;;;20.55;61.1084;931.8983;;;;
2023/05/09 15:16:57;;;;;;;1.2;0.9;;;;;;;20.61;61.19727;931.9583;;;;
2023/05/09 15:19:21;;;;;;;0.8;0.8;;;;;;;20.43;62.13281;931.9441;;;;
2023/05/09 15:21:47;;;;;;;1;1;;;;;;;19.93;63.46191;931.9126;;;;
2023/05/09 15:24:12;;;;;;;0.7;0.7;;;;;;;19.97;64.31836;931.9192;;;;
2023/05/09 15:26:40;;;;;;;1.2;0.9;;;;;;;20.12;63.23047;931.8493;;;;
2023/05/09 15:29:05;;;;;;;1.1;1;;;;;;;20.14;63.58301;931.8638;;;;
2023/05/09 15:31:30;;;;;;;0.9;0.9;;;;;;;20.01;64.87207;931.8142;;;;
2023/05/09 15:33:55;;;;;;;1.3;1.1;;;;;;;19.94;63.82324;931.8161;;;;
2023/05/09 15:36:21;;;;;;;1.4;1.1;;;;;;;19.86;65.53809;931.7704;;;;
2023/05/09 15:38:48;;;;;;;1.3;1.2;;;;;;;20.03;64.67773;931.7791;;;;
2023/05/09 15:41:11;;;;;;;1.2;1.1;;;;;;;20.24;62.95703;931.7084;;;;
2023/05/09 15:43:36;;;;;;;1.5;0.9;;;;;;;20.28;64.22266;931.7117;;;;
2023/05/09 15:46:02;;;;;;;1.5;1.4;;;;;;;20.32;63.48242;931.6913;;;;